createdAt,value
2023-03-30T05:01:13.528Z,500.00
2023-03-30T05:02:13.541Z,500.00
2023-03-30T05:03:13.616Z,500.00
2023-03-30T05:04:13.564Z,500.00
2023-03-30T05:05:13.553Z,500.00
2023-03-30T05:06:13.594Z,500.00
2023-03-30T05:07:13.639Z,400.00
2023-03-30T05:08:13.709Z,400.00
2023-03-30T05:09:13.701Z,400.00
2023-03-30T05:10:13.707Z,400.00
2023-03-30T05:11:13.693Z,400.00
2023-03-30T05:12:13.742Z,400.00
2023-03-30T05:13:13.747Z,400.00
2023-03-30T05:14:13.753Z,400.00
2023-03-30T05:15:13.800Z,400.00
2023-03-30T05:16:13.790Z,400.00
2023-03-30T05:17:14.021Z,400.00
2023-03-30T05:18:13.900Z,400.00
2023-03-30T05:19:13.939Z,400.00
2023-03-30T05:20:14.041Z,400.00
2023-03-30T05:21:14.044Z,400.00
2023-03-30T05:22:14.083Z,400.00
2023-03-30T05:23:14.115Z,400.00
2023-03-30T05:24:14.150Z,400.00
2023-03-30T05:25:14.253Z,400.00
2023-03-30T05:26:14.291Z,424.00
2023-03-30T05:27:14.391Z,459.00
2023-03-30T05:28:14.369Z,500.00
2023-03-30T05:29:14.438Z,500.00
2023-03-30T05:30:14.506Z,507.00
2023-03-30T05:31:14.565Z,501.00
2023-03-30T05:32:14.606Z,500.00
2023-03-30T05:33:14.603Z,500.00
2023-03-30T05:34:14.679Z,505.00
2023-03-30T05:35:14.750Z,500.00
2023-03-30T05:36:14.769Z,500.00
2023-03-30T05:37:14.832Z,507.00
2023-03-30T05:38:14.860Z,502.00
2023-03-30T05:39:14.885Z,500.00
2023-03-30T05:40:15.017Z,509.00
2023-03-30T05:41:15.020Z,501.00
2023-03-30T05:42:15.080Z,500.00
2023-03-30T05:43:15.102Z,500.00
2023-03-30T05:44:15.143Z,504.00
2023-03-30T05:45:15.180Z,500.00
2023-03-30T05:46:15.328Z,510.00
2023-03-30T05:47:15.261Z,504.00
2023-03-30T05:48:15.404Z,508.00
2023-03-30T05:49:15.387Z,504.00
2023-03-30T05:50:15.411Z,505.00
2023-03-30T05:51:15.487Z,503.00
2023-03-30T05:52:15.525Z,505.00
2023-03-30T05:53:15.577Z,501.00
2023-03-30T05:54:15.670Z,510.00
2023-03-30T05:55:15.668Z,508.00
2023-03-30T05:56:15.729Z,509.00
2023-03-30T05:57:15.846Z,507.00
2023-03-30T05:58:16.009Z,503.00
2023-03-30T05:59:15.896Z,508.00
2023-03-30T06:00:15.946Z,513.00
2023-03-30T06:01:15.956Z,523.00
2023-03-30T06:02:15.979Z,525.00
2023-03-30T06:03:16.069Z,513.00
2023-03-30T06:04:16.350Z,529.00
2023-03-30T06:05:16.244Z,531.00
2023-03-30T06:06:16.136Z,539.00
2023-03-30T06:07:16.242Z,539.00
2023-03-30T06:08:16.218Z,549.00
2023-03-30T06:09:16.243Z,550.00
2023-03-30T06:10:16.317Z,546.00
2023-03-30T06:11:16.326Z,552.00
2023-03-30T06:12:16.337Z,556.00
2023-03-30T06:13:16.332Z,557.00
2023-03-30T06:14:16.381Z,550.00
2023-03-30T06:15:16.415Z,560.00
2023-03-30T06:16:16.449Z,562.00
2023-03-30T06:17:16.463Z,563.00
2023-03-30T06:18:16.570Z,564.00
2023-03-30T06:19:16.525Z,571.00
2023-03-30T06:20:16.491Z,579.00
2023-03-30T06:21:16.522Z,576.00
2023-03-30T06:22:16.531Z,582.00
2023-03-30T06:23:16.559Z,580.00
2023-03-30T06:24:16.566Z,581.00
2023-03-30T06:25:16.594Z,587.00
2023-03-30T06:26:16.614Z,594.00
2023-03-30T06:27:16.641Z,587.00
2023-03-30T06:28:16.631Z,594.00
2023-03-30T06:29:16.687Z,593.00
2023-03-30T06:30:16.709Z,595.00
2023-03-30T06:31:16.766Z,598.00
2023-03-30T06:32:16.880Z,598.00
2023-03-30T06:33:16.766Z,599.00
2023-03-30T06:34:16.711Z,594.00
2023-03-30T06:35:16.856Z,593.00
2023-03-30T06:36:16.867Z,590.00
2023-03-30T06:37:16.775Z,586.00
2023-03-30T06:38:16.809Z,593.00
2023-03-30T06:39:16.780Z,596.00
2023-03-30T06:40:16.792Z,591.00
2023-03-30T06:41:16.831Z,591.00
2023-03-30T06:42:16.821Z,590.00
2023-03-30T06:43:16.874Z,600.00
2023-03-30T06:44:16.875Z,592.00
2023-03-30T06:45:16.850Z,594.00
2023-03-30T06:46:16.915Z,604.00
2023-03-30T06:47:16.874Z,604.00
2023-03-30T06:48:16.846Z,594.00
2023-03-30T06:49:16.876Z,594.00
2023-03-30T06:50:16.932Z,594.00
2023-03-30T06:51:16.888Z,599.00
2023-03-30T06:52:16.895Z,604.00
2023-03-30T06:53:16.920Z,597.00
2023-03-30T06:54:16.921Z,598.00
2023-03-30T06:55:17.017Z,588.00
2023-03-30T06:56:26.962Z,591.00
2023-03-30T06:57:17.284Z,592.00
2023-03-30T06:58:16.885Z,593.00
2023-03-30T06:59:16.923Z,596.00
2023-03-30T07:00:30.946Z,599.00
2023-03-30T07:01:24.487Z,593.00
2023-03-30T07:02:16.878Z,593.00
2023-03-30T07:03:16.850Z,595.00
2023-03-30T07:04:16.870Z,599.00
2023-03-30T07:05:16.850Z,602.00
2023-03-30T07:06:18.688Z,606.00
2023-03-30T07:07:16.859Z,592.00
2023-03-30T07:08:16.867Z,594.00
2023-03-30T07:09:16.835Z,595.00
2023-03-30T07:10:16.856Z,599.00
2023-03-30T07:11:16.819Z,599.00
2023-03-30T07:12:16.834Z,607.00
2023-03-30T07:13:16.792Z,602.00
2023-03-30T07:14:16.802Z,607.00
2023-03-30T07:15:16.813Z,601.00
2023-03-30T07:16:16.953Z,601.00
2023-03-30T07:17:16.860Z,607.00
2023-03-30T07:18:16.854Z,610.00
2023-03-30T07:19:16.770Z,602.00
2023-03-30T07:20:16.809Z,615.00
2023-03-30T07:21:16.792Z,614.00
2023-03-30T07:22:16.743Z,611.00
2023-03-30T07:23:17.529Z,608.00
2023-03-30T07:24:16.754Z,603.00
2023-03-30T07:25:16.742Z,607.00
2023-03-30T07:26:16.741Z,600.00
2023-03-30T07:27:16.690Z,603.00
2023-03-30T07:28:17.562Z,596.00
2023-03-30T07:29:16.752Z,595.00
2023-03-30T07:30:21.850Z,595.00
2023-03-30T07:31:17.773Z,596.00
2023-03-30T07:32:16.710Z,597.00
2023-03-30T07:33:16.732Z,598.00
2023-03-30T07:34:16.666Z,594.00
2023-03-30T07:35:16.667Z,591.00
2023-03-30T07:36:16.736Z,591.00
2023-03-30T07:38:16.619Z,587.00
2023-03-30T07:39:16.696Z,587.00
2023-03-30T07:40:16.779Z,593.00
2023-03-30T07:41:16.805Z,591.00
2023-03-30T07:42:16.935Z,589.00
2023-03-30T07:43:16.890Z,601.00
2023-03-30T07:44:16.945Z,604.00
2023-03-30T07:45:16.969Z,603.00
2023-03-30T07:46:17.115Z,612.00
2023-03-30T07:47:17.097Z,637.00
2023-03-30T07:48:17.148Z,661.00
2023-03-30T07:49:17.180Z,699.00
2023-03-30T07:50:17.228Z,704.00
2023-03-30T07:51:17.342Z,734.00
2023-03-30T07:52:17.294Z,742.00
2023-03-30T07:53:17.255Z,813.00
2023-03-30T07:54:17.261Z,1017.00
2023-03-30T07:55:17.271Z,1394.00
2023-03-30T07:56:17.226Z,1796.00
2023-03-30T07:57:17.258Z,1815.00
2023-03-30T07:58:17.274Z,1774.00
2023-03-30T07:59:17.228Z,1778.00
2023-03-30T08:00:17.267Z,1765.00
2023-03-30T08:01:17.214Z,1744.00
2023-03-30T08:02:17.196Z,1725.00
2023-03-30T08:03:17.331Z,1699.00
2023-03-30T08:04:17.310Z,1670.00
2023-03-30T08:05:17.386Z,1650.00
2023-03-30T08:06:17.187Z,1620.00
2023-03-30T08:07:17.182Z,1602.00
2023-03-30T08:08:17.249Z,1604.00
2023-03-30T08:09:17.253Z,1599.00
2023-03-30T08:10:17.252Z,1590.00
2023-03-30T08:11:17.244Z,1564.00
2023-03-30T08:12:17.229Z,1552.00
2023-03-30T08:13:18.263Z,1547.00
2023-03-30T08:14:17.359Z,1532.00
2023-03-30T08:15:17.372Z,1509.00
2023-03-30T08:16:17.400Z,1450.00
2023-03-30T08:17:17.363Z,1355.00
2023-03-30T08:18:17.382Z,1301.00
2023-03-30T08:19:17.503Z,1260.00
2023-03-30T08:20:17.407Z,1275.00
2023-03-30T08:21:17.416Z,1214.00
2023-03-30T08:22:17.455Z,1185.00
2023-03-30T08:23:17.513Z,1214.00
2023-03-30T08:24:17.425Z,1144.00
2023-03-30T08:25:17.466Z,1121.00
2023-03-30T08:26:17.620Z,1138.00
2023-03-30T08:27:17.601Z,1177.00
2023-03-30T08:28:17.475Z,1141.00
2023-03-30T08:29:17.538Z,1161.00
2023-03-30T08:30:17.566Z,1147.00
2023-03-30T08:31:17.568Z,1138.00
2023-03-30T08:32:17.492Z,1146.00
2023-03-30T08:33:17.500Z,1146.00
2023-03-30T08:34:17.539Z,1141.00
2023-03-30T08:35:17.533Z,1153.00
2023-03-30T08:36:17.564Z,1162.00
2023-03-30T08:37:18.046Z,1151.00
2023-03-30T08:38:17.776Z,1161.00
2023-03-30T08:39:17.572Z,1152.00
2023-03-30T08:40:19.339Z,1158.00
2023-03-30T08:41:17.655Z,1157.00
2023-03-30T08:42:17.611Z,1162.00
2023-03-30T08:43:17.584Z,1146.00
2023-03-30T08:44:17.618Z,1134.00
2023-03-30T08:45:17.600Z,1132.00
2023-03-30T08:46:17.777Z,1136.00
2023-03-30T08:47:17.637Z,1114.00
2023-03-30T08:48:17.661Z,1111.00
2023-03-30T08:49:17.709Z,1104.00
2023-03-30T08:50:17.666Z,1113.00
2023-03-30T08:51:17.699Z,1100.00
2023-03-30T08:52:17.743Z,1088.00
2023-03-30T08:53:17.708Z,1073.00
2023-03-30T08:54:17.718Z,1055.00
2023-03-30T08:55:17.714Z,1046.00
2023-03-30T08:56:17.735Z,1031.00
2023-03-30T08:57:20.248Z,1047.00
2023-03-30T08:58:17.773Z,1079.00
2023-03-30T08:59:17.740Z,3974.00
2023-03-30T09:00:20.755Z,3326.00
2023-03-30T09:02:10.738Z,500.00
2023-03-30T09:03:10.641Z,500.00
2023-03-30T09:04:10.570Z,500.00
2023-03-30T09:05:10.630Z,500.00
2023-03-30T09:06:10.542Z,500.00
2023-03-30T09:07:10.543Z,497.00
2023-03-30T09:08:10.505Z,503.00
2023-03-30T09:09:10.500Z,496.00
2023-03-30T09:10:10.511Z,500.00
2023-03-30T09:11:10.575Z,505.00
2023-03-30T09:12:10.581Z,501.00
2023-03-30T09:13:10.658Z,496.00
2023-03-30T09:14:10.719Z,502.00
2023-03-30T09:15:10.758Z,499.00
2023-03-30T09:16:10.806Z,500.00
2023-03-30T09:17:10.847Z,500.00
2023-03-30T09:18:10.975Z,500.00
2023-03-30T09:19:10.905Z,500.00
2023-03-30T09:20:10.931Z,503.00
2023-03-30T09:21:10.929Z,503.00
2023-03-30T09:22:10.956Z,500.00
2023-03-30T09:23:10.940Z,500.00
2023-03-30T09:24:10.942Z,500.00
2023-03-30T09:25:10.976Z,499.00
2023-03-30T09:26:10.993Z,500.00
2023-03-30T09:27:10.974Z,502.00
2023-03-30T09:28:11.087Z,508.00
2023-03-30T09:29:11.046Z,500.00
2023-03-30T09:30:11.104Z,504.00
2023-03-30T09:31:11.154Z,500.00
2023-03-30T09:32:11.338Z,502.00
2023-03-30T09:33:11.300Z,506.00
2023-03-30T09:34:13.626Z,504.00
2023-03-30T09:35:11.223Z,509.00
2023-03-30T09:36:11.261Z,515.00
2023-03-30T09:37:11.225Z,514.00
2023-03-30T09:38:11.224Z,518.00
2023-03-30T09:39:11.212Z,529.00
2023-03-30T09:40:11.202Z,511.00
2023-03-30T09:41:11.214Z,513.00
2023-03-30T09:42:11.242Z,515.00
2023-03-30T09:43:11.225Z,524.00
2023-03-30T09:44:11.181Z,516.00
2023-03-30T09:45:11.193Z,518.00
2023-03-30T09:46:11.255Z,519.00
2023-03-30T09:47:11.149Z,510.00
2023-03-30T09:48:11.328Z,504.00
2023-03-30T09:49:11.153Z,500.00
2023-03-30T09:50:11.163Z,506.00
2023-03-30T09:51:11.177Z,512.00
2023-03-30T09:52:11.110Z,511.00
2023-03-30T09:53:11.154Z,517.00
2023-03-30T09:54:11.108Z,512.00
2023-03-30T09:55:11.112Z,522.00
2023-03-30T09:56:11.122Z,535.00
2023-03-30T09:57:11.156Z,534.00
2023-03-30T09:58:11.066Z,527.00
2023-03-30T09:59:11.058Z,520.00
2023-03-30T10:00:11.070Z,516.00
2023-03-30T10:01:11.114Z,516.00
2023-03-30T10:02:11.054Z,510.00
2023-03-30T10:03:11.096Z,509.00
2023-03-30T10:04:11.360Z,505.00
2023-03-30T10:05:11.051Z,500.00
2023-03-30T10:06:11.030Z,504.00
2023-03-30T10:07:18.653Z,509.00
2023-03-30T10:08:12.085Z,510.00
2023-03-30T10:09:11.319Z,512.00
2023-03-30T10:10:11.003Z,515.00
2023-03-30T10:11:10.982Z,516.00
2023-03-30T10:12:10.982Z,524.00
2023-03-30T10:13:11.022Z,516.00
2023-03-30T10:14:10.997Z,509.00
2023-03-30T10:15:10.971Z,510.00
2023-03-30T10:16:11.182Z,500.00
2023-03-30T10:17:11.001Z,502.00
2023-03-30T10:18:10.966Z,501.00
2023-03-30T10:19:10.924Z,501.00
2023-03-30T10:20:14.149Z,506.00
2023-03-30T10:21:10.924Z,510.00
2023-03-30T10:22:10.973Z,500.00
2023-03-30T10:23:10.897Z,505.00
2023-03-30T10:24:10.913Z,505.00
2023-03-30T10:25:10.882Z,508.00
2023-03-30T10:26:10.871Z,516.00
2023-03-30T10:27:10.923Z,517.00
2023-03-30T10:28:10.887Z,523.00
2023-03-30T10:29:10.996Z,536.00
2023-03-30T10:30:10.844Z,535.00
2023-03-30T10:31:10.875Z,534.00
2023-03-30T10:32:10.858Z,529.00
2023-03-30T10:33:10.901Z,535.00
2023-03-30T10:34:10.897Z,537.00
2023-03-30T10:35:10.834Z,538.00
2023-03-30T10:36:10.868Z,534.00
2023-03-30T10:37:10.853Z,531.00
2023-03-30T10:38:10.822Z,537.00
2023-03-30T10:39:10.817Z,533.00
2023-03-30T10:40:10.804Z,534.00
2023-03-30T10:41:10.802Z,532.00
2023-03-30T10:42:10.765Z,529.00
2023-03-30T10:43:10.751Z,528.00
2023-03-30T10:44:10.773Z,524.00
2023-03-30T10:45:10.777Z,529.00
2023-03-30T10:46:19.412Z,526.00
2023-03-30T10:47:11.803Z,527.00
2023-03-30T10:48:10.821Z,527.00
2023-03-30T10:49:10.732Z,529.00
2023-03-30T10:50:10.737Z,532.00
2023-03-30T10:51:10.717Z,541.00
2023-03-30T10:52:10.711Z,544.00
2023-03-30T10:53:10.709Z,530.00
2023-03-30T10:54:10.716Z,506.00
2023-03-30T10:55:10.724Z,504.00
2023-03-30T10:56:10.680Z,500.00
2023-03-30T10:57:10.770Z,511.00
2023-03-30T10:58:10.744Z,500.00
2023-03-30T10:59:10.669Z,527.00
2023-03-30T11:00:10.659Z,526.00
2023-03-30T11:01:10.728Z,536.00
2023-03-30T11:02:10.694Z,532.00
2023-03-30T11:03:10.739Z,502.00
2023-03-30T11:04:22.574Z,502.00
2023-03-30T11:05:11.638Z,503.00
2023-03-30T11:06:10.636Z,494.00
2023-03-30T11:07:10.601Z,480.00
2023-03-30T11:08:10.602Z,476.00
2023-03-30T11:09:10.618Z,469.00
2023-03-30T11:10:10.604Z,506.00
2023-03-30T11:11:10.640Z,501.00
2023-03-30T11:12:10.579Z,503.00
2023-03-30T11:13:10.594Z,536.00
2023-03-30T11:14:10.588Z,526.00
2023-03-30T11:15:10.572Z,544.00
2023-03-30T11:16:10.617Z,555.00
2023-03-30T11:17:10.615Z,551.00
2023-03-30T11:18:10.639Z,547.00
2023-03-30T11:19:10.634Z,540.00
2023-03-30T11:20:10.550Z,547.00
2023-03-30T11:21:10.534Z,540.00
2023-03-30T11:22:10.502Z,521.00
2023-03-30T11:23:10.556Z,543.00
2023-03-30T11:24:10.565Z,555.00
2023-03-30T11:25:10.496Z,553.00
2023-03-30T11:26:10.504Z,559.00
2023-03-30T11:27:10.500Z,552.00
2023-03-30T11:28:10.478Z,537.00
2023-03-30T11:29:10.463Z,531.00
2023-03-30T11:30:10.470Z,525.00
2023-03-30T11:31:10.460Z,519.00
2023-03-30T11:32:10.549Z,532.00
2023-03-30T11:33:10.634Z,549.00
2023-03-30T11:34:10.519Z,556.00
2023-03-30T11:35:10.511Z,549.00
2023-03-30T11:36:10.599Z,540.00
2023-03-30T11:37:10.601Z,526.00
2023-03-30T11:38:10.616Z,520.00
2023-03-30T11:39:21.265Z,522.00
2023-03-30T11:40:11.650Z,522.00
2023-03-30T11:41:10.688Z,523.00
2023-03-30T11:42:10.660Z,529.00
2023-03-30T11:43:10.609Z,531.00
2023-03-30T11:44:10.602Z,528.00
2023-03-30T11:45:10.595Z,511.00
2023-03-30T11:46:10.992Z,506.00
2023-03-30T11:47:10.576Z,503.00
2023-03-30T11:48:10.680Z,498.00
2023-03-30T11:49:10.576Z,501.00
2023-03-30T11:50:10.557Z,501.00
2023-03-30T11:51:10.562Z,503.00
2023-03-30T11:52:10.591Z,503.00
2023-03-30T11:53:10.554Z,518.00
2023-03-30T11:54:10.600Z,508.00
2023-03-30T11:55:10.531Z,509.00
2023-03-30T11:56:10.553Z,515.00
2023-03-30T11:57:10.580Z,517.00
2023-03-30T11:58:10.553Z,518.00
2023-03-30T11:59:10.537Z,527.00
2023-03-30T12:00:10.521Z,531.00
2023-03-30T12:01:10.487Z,529.00
2023-03-30T12:02:10.521Z,534.00
2023-03-30T12:03:10.571Z,561.00
2023-03-30T12:04:10.656Z,546.00
2023-03-30T12:05:10.644Z,544.00
2023-03-30T12:06:10.465Z,551.00
2023-03-30T12:07:10.434Z,557.00
2023-03-30T12:08:10.444Z,546.00
2023-03-30T12:09:10.459Z,546.00
2023-03-30T12:10:10.438Z,541.00
2023-03-30T12:11:10.469Z,538.00
2023-03-30T12:12:10.480Z,538.00
2023-03-30T12:13:10.465Z,543.00
2023-03-30T12:14:10.476Z,529.00
2023-03-30T12:15:10.482Z,516.00
2023-03-30T12:16:10.545Z,508.00
2023-03-30T12:17:10.490Z,509.00
2023-03-30T12:18:10.614Z,500.00
2023-03-30T12:19:10.574Z,506.00
2023-03-30T12:20:10.589Z,503.00
2023-03-30T12:21:10.587Z,500.00
2023-03-30T12:22:10.557Z,500.00
2023-03-30T12:23:10.598Z,500.00
2023-03-30T12:24:10.608Z,499.00
2023-03-30T12:25:10.638Z,509.00
2023-03-30T12:26:10.696Z,502.00
2023-03-30T12:27:11.743Z,509.00
2023-03-30T12:28:10.707Z,516.00
2023-03-30T12:29:36.018Z,522.00
2023-03-30T12:30:11.770Z,519.00
2023-03-30T12:31:10.925Z,520.00
2023-03-30T12:32:10.752Z,524.00
2023-03-30T12:33:10.790Z,524.00
2023-03-30T12:34:10.732Z,514.00
2023-03-30T12:35:10.679Z,509.00
2023-03-30T12:36:10.759Z,512.00
2023-03-30T12:37:10.690Z,513.00
2023-03-30T12:38:10.686Z,506.00
2023-03-30T12:39:10.693Z,500.00
2023-03-30T12:40:10.775Z,507.00
2023-03-30T12:41:10.657Z,504.00
2023-03-30T12:42:10.636Z,505.00
2023-03-30T12:43:10.660Z,503.00
2023-03-30T12:44:10.654Z,506.00
2023-03-30T12:45:10.669Z,512.00
2023-03-30T12:46:10.800Z,514.00
2023-03-30T12:47:12.208Z,520.00
2023-03-30T12:48:10.813Z,523.00
2023-03-30T12:49:10.821Z,520.00
2023-03-30T12:50:10.844Z,528.00
2023-03-30T12:51:10.848Z,516.00
2023-03-30T12:52:10.943Z,533.00
2023-03-30T12:53:10.937Z,547.00
2023-03-30T12:54:10.950Z,535.00
2023-03-30T12:55:10.986Z,553.00
2023-03-30T12:56:10.997Z,530.00
2023-03-30T12:57:11.122Z,544.00
2023-03-30T12:58:11.081Z,538.00
2023-03-30T12:59:11.147Z,550.00
2023-03-30T13:00:11.173Z,549.00
2023-03-30T13:01:11.192Z,540.00
2023-03-30T13:02:11.214Z,541.00
2023-03-30T13:03:11.243Z,535.00
2023-03-30T13:04:11.331Z,542.00
2023-03-30T13:05:11.288Z,536.00
2023-03-30T13:06:11.322Z,543.00
2023-03-30T13:07:11.357Z,552.00
2023-03-30T13:08:11.428Z,564.00
2023-03-30T13:09:11.438Z,576.00
2023-03-30T13:10:11.430Z,584.00
2023-03-30T13:11:11.471Z,594.00
2023-03-30T13:12:11.501Z,587.00
2023-03-30T13:13:11.560Z,597.00
2023-03-30T13:14:11.559Z,609.00
2023-03-30T13:15:11.566Z,614.00
2023-03-30T13:16:14.130Z,608.00
2023-03-30T13:17:11.750Z,619.00
2023-03-30T13:18:11.599Z,622.00
2023-03-30T13:19:11.583Z,621.00
2023-03-30T13:20:25.977Z,620.00
2023-03-30T13:21:12.577Z,620.00
2023-03-30T13:22:11.603Z,621.00
2023-03-30T13:23:11.684Z,623.00
2023-03-30T13:24:11.525Z,633.00
2023-03-30T13:25:11.561Z,634.00
2023-03-30T13:26:16.894Z,634.00
2023-03-30T13:27:12.554Z,634.00
2023-03-30T13:28:13.637Z,624.00
2023-03-30T13:29:11.827Z,627.00
2023-03-30T13:30:11.779Z,633.00
2023-03-30T13:31:11.760Z,634.00
2023-03-30T13:32:11.778Z,646.00
2023-03-30T13:33:11.853Z,646.00
2023-03-30T13:34:13.922Z,650.00
2023-03-30T13:35:11.826Z,645.00
2023-03-30T13:36:11.830Z,639.00
2023-03-30T13:37:11.823Z,625.00
2023-03-30T13:38:11.790Z,636.00
2023-03-30T13:39:11.787Z,639.00
2023-03-30T13:40:11.757Z,635.00
2023-03-30T13:41:11.764Z,646.00
2023-03-30T13:42:11.733Z,642.00
2023-03-30T13:43:11.748Z,646.00
2023-03-30T13:44:11.738Z,648.00
2023-03-30T13:45:11.733Z,650.00
2023-03-30T13:46:17.186Z,638.00
2023-03-30T13:47:12.872Z,639.00
2023-03-30T13:48:11.762Z,641.00
2023-03-30T13:49:11.785Z,641.00
2023-03-30T13:50:11.699Z,645.00
2023-03-30T13:51:11.704Z,653.00
2023-03-30T13:52:11.667Z,662.00
2023-03-30T13:53:11.684Z,656.00
2023-03-30T13:54:11.720Z,665.00
2023-03-30T13:55:11.685Z,678.00
2023-03-30T13:56:11.640Z,657.00
2023-03-30T13:57:11.675Z,652.00
2023-03-30T13:58:11.665Z,655.00
2023-03-30T13:59:11.625Z,664.00
2023-03-30T14:00:11.622Z,667.00
2023-03-30T14:01:11.676Z,686.00
2023-03-30T14:02:11.642Z,687.00
2023-03-30T14:03:11.652Z,700.00
2023-03-30T14:04:11.634Z,745.00
2023-03-30T14:05:11.599Z,777.00
2023-03-30T14:06:11.638Z,789.00
2023-03-30T14:07:11.604Z,813.00
2023-03-30T14:08:11.583Z,816.00
2023-03-30T14:09:11.632Z,836.00
2023-03-30T14:10:11.676Z,849.00
2023-03-30T14:11:11.653Z,878.00
2023-03-30T14:12:11.650Z,872.00
2023-03-30T14:13:11.678Z,887.00
2023-03-30T14:14:12.649Z,888.00
2023-03-30T14:15:11.626Z,889.00
2023-03-30T14:16:11.693Z,894.00
2023-03-30T14:17:11.653Z,900.00
2023-03-30T14:18:11.694Z,907.00
2023-03-30T14:19:11.620Z,899.00
2023-03-30T14:20:11.854Z,909.00
2023-03-30T14:21:11.598Z,898.00
2023-03-30T14:22:11.589Z,906.00
2023-03-30T14:23:11.587Z,908.00
2023-03-30T14:24:11.611Z,902.00
2023-03-30T14:25:11.614Z,892.00
2023-03-30T14:26:11.553Z,892.00
2023-03-30T14:27:11.558Z,906.00
2023-03-30T14:28:11.542Z,900.00
2023-03-30T14:29:13.342Z,912.00
2023-03-30T14:30:12.588Z,914.00
2023-03-30T14:31:11.568Z,918.00
2023-03-30T14:32:12.761Z,922.00
2023-03-30T14:33:11.589Z,944.00
2023-03-30T14:34:11.564Z,950.00
2023-03-30T14:35:11.531Z,943.00
2023-03-30T14:36:11.619Z,947.00
2023-03-30T14:37:11.473Z,959.00
2023-03-30T14:38:16.843Z,960.00
2023-03-30T14:39:12.494Z,961.00
2023-03-30T14:40:11.496Z,962.00
2023-03-30T14:41:11.480Z,960.00
2023-03-30T14:42:11.452Z,967.00
2023-03-30T14:43:11.497Z,969.00
2023-03-30T14:44:11.458Z,970.00
2023-03-30T14:45:11.463Z,971.00
2023-03-30T14:46:11.552Z,983.00
2023-03-30T14:47:11.486Z,973.00
2023-03-30T14:48:11.422Z,966.00
2023-03-30T14:49:11.454Z,977.00
2023-03-30T14:50:11.398Z,979.00
2023-03-30T14:51:11.415Z,979.00
2023-03-30T14:52:11.391Z,981.00
2023-03-30T14:53:11.417Z,976.00
2023-03-30T14:54:11.405Z,976.00
2023-03-30T14:55:15.406Z,989.00
2023-03-30T14:56:12.383Z,989.00
2023-03-30T14:57:11.437Z,990.00
2023-03-30T14:58:11.405Z,993.00
2023-03-30T14:59:11.381Z,993.00
2023-03-30T15:00:11.366Z,996.00
2023-03-30T15:01:11.518Z,994.00
2023-03-30T15:02:11.364Z,993.00
2023-03-30T15:03:22.703Z,993.00
2023-03-30T15:04:12.451Z,994.00
2023-03-30T15:05:11.315Z,996.00
2023-03-30T15:06:11.279Z,997.00
2023-03-30T15:07:11.276Z,1009.00
2023-03-30T15:08:11.272Z,1002.00
2023-03-30T15:09:11.293Z,1001.00
2023-03-30T15:10:11.337Z,1017.00
2023-03-30T15:11:11.246Z,1020.00
2023-03-30T15:12:11.325Z,1021.00
2023-03-30T15:13:11.311Z,1046.00
2023-03-30T15:14:11.259Z,1053.00
2023-03-30T15:15:11.230Z,1063.00
2023-03-30T15:16:11.248Z,1066.00
2023-03-30T15:17:11.308Z,1086.00
2023-03-30T15:18:11.304Z,1102.00
2023-03-30T15:19:11.285Z,1097.00
2023-03-30T15:20:11.221Z,1112.00
2023-03-30T15:21:11.203Z,1109.00
2023-03-30T15:22:11.197Z,1125.00
2023-03-30T15:23:11.239Z,1132.00
2023-03-30T15:24:11.214Z,1120.00
2023-03-30T15:25:11.199Z,1140.00
2023-03-30T15:26:11.233Z,1137.00
2023-03-30T15:27:11.155Z,1138.00
2023-03-30T15:28:11.156Z,1145.00
2023-03-30T15:29:11.232Z,1158.00
2023-03-30T15:30:11.169Z,1183.00
2023-03-30T15:31:11.192Z,1172.00
2023-03-30T15:32:11.107Z,1176.00
2023-03-30T15:33:11.138Z,1171.00
2023-03-30T15:34:11.104Z,1173.00
2023-03-30T15:35:11.154Z,1162.00
2023-03-30T15:36:11.278Z,1163.00
2023-03-30T15:37:11.160Z,1168.00
2023-03-30T15:38:11.160Z,1172.00
2023-03-30T15:39:11.200Z,1175.00
2023-03-30T15:40:11.200Z,1181.00
2023-03-30T15:41:11.236Z,1185.00
2023-03-30T15:42:11.239Z,1194.00
2023-03-30T15:43:11.214Z,1176.00
2023-03-30T15:44:11.203Z,1176.00
2023-03-30T15:45:11.246Z,1200.00
2023-03-30T15:46:11.289Z,1187.00
2023-03-30T15:47:11.221Z,1198.00
2023-03-30T15:48:11.218Z,1285.00
2023-03-30T15:49:11.230Z,1395.00
2023-03-30T15:50:11.306Z,1554.00
2023-03-30T15:51:11.279Z,1621.00
2023-03-30T15:52:11.241Z,1737.00
2023-03-30T15:53:11.276Z,1880.00
2023-03-30T15:54:11.287Z,1992.00
2023-03-30T15:55:11.316Z,2050.00
2023-03-30T15:56:11.367Z,2043.00
2023-03-30T15:57:11.400Z,2048.00
2023-03-30T15:58:11.363Z,2018.00
2023-03-30T15:59:11.375Z,1983.00
2023-03-30T16:00:11.378Z,2001.00
2023-03-30T16:01:11.361Z,1967.00
2023-03-30T16:02:11.497Z,1938.00
2023-03-30T16:03:11.411Z,1900.00
2023-03-30T16:04:11.360Z,1899.00
2023-03-30T16:05:11.435Z,1933.00
2023-03-30T16:06:11.396Z,1957.00
2023-03-30T16:07:11.412Z,1952.00
2023-03-30T16:08:11.410Z,1982.00
2023-03-30T16:09:11.388Z,1987.00
2023-03-30T16:10:11.403Z,2028.00
2023-03-30T16:11:11.383Z,2073.00
2023-03-30T16:12:11.424Z,2036.00
2023-03-30T16:13:11.384Z,2022.00
2023-03-30T16:14:11.418Z,1984.00
2023-03-30T16:15:11.409Z,1988.00
2023-03-30T16:16:11.451Z,1971.00
2023-03-30T16:17:11.402Z,1968.00
2023-03-30T16:18:11.459Z,1946.00
2023-03-30T16:19:11.418Z,1929.00
2023-03-30T16:20:11.436Z,1925.00
2023-03-30T16:21:11.418Z,1891.00
2023-03-30T16:22:11.445Z,1916.00
2023-03-30T16:23:11.448Z,1881.00
2023-03-30T16:24:11.466Z,1910.00
2023-03-30T16:25:11.447Z,1906.00
2023-03-30T16:26:11.438Z,1883.00
2023-03-30T16:27:11.448Z,1866.00
2023-03-30T16:28:11.482Z,1867.00
2023-03-30T16:29:11.456Z,1871.00
2023-03-30T16:30:11.458Z,1868.00
2023-03-30T16:31:11.542Z,1857.00
2023-03-30T16:32:11.497Z,1856.00
2023-03-30T16:33:11.514Z,1847.00
2023-03-30T16:34:11.448Z,1845.00
2023-03-30T16:35:11.481Z,1833.00
2023-03-30T16:36:11.526Z,1828.00
2023-03-30T16:37:11.530Z,1829.00
2023-03-30T16:38:11.515Z,1801.00
2023-03-30T16:39:11.491Z,1805.00
2023-03-30T16:40:11.505Z,1824.00
2023-03-30T16:41:11.524Z,1781.00
2023-03-30T16:42:11.549Z,1783.00
2023-03-30T16:43:11.529Z,1790.00
2023-03-30T16:44:11.548Z,1790.00
2023-03-30T16:45:11.509Z,1770.00
2023-03-30T16:46:11.595Z,1784.00
2023-03-30T16:47:11.558Z,1777.00
2023-03-30T16:48:11.567Z,1770.00
2023-03-30T16:49:11.592Z,1766.00
2023-03-30T16:50:11.592Z,1757.00
2023-03-30T16:51:11.601Z,1752.00
2023-03-30T16:52:11.668Z,1741.00
2023-03-30T16:53:11.613Z,1720.00
2023-03-30T16:54:27.177Z,1724.00
2023-03-30T16:55:12.626Z,1725.00
2023-03-30T16:56:11.643Z,1728.00
2023-03-30T16:57:11.625Z,1729.00
2023-03-30T16:58:11.602Z,1729.00
2023-03-30T16:59:11.598Z,1719.00
2023-03-30T17:00:11.564Z,1708.00
